createdAt,value
2019-06-01T00:04:07.914Z,11.43
2019-06-01T00:08:31.737Z,11.67
2019-06-01T00:12:55.744Z,12.30
2019-06-01T00:17:19.560Z,12.97
2019-06-01T00:21:43.368Z,13.67
2019-06-01T00:26:07.629Z,16.43
2019-06-01T00:30:31.496Z,19.13
2019-06-01T00:34:55.653Z,19.60
2019-06-01T00:39:19.492Z,20.03
2019-06-01T00:43:44.216Z,21.43
2019-06-01T00:48:08.029Z,22.47
2019-06-01T00:52:31.830Z,22.27
2019-06-01T00:56:55.717Z,21.17
2019-06-01T01:01:20.224Z,23.60
2019-06-01T01:05:44.612Z,20.93
2019-06-01T01:10:09.074Z,20.63
2019-06-01T01:14:33.211Z,20.43
2019-06-01T01:18:57.163Z,21.47
2019-06-01T01:23:21.513Z,24.35
2019-06-01T01:27:46.518Z,22.23
2019-06-01T01:32:10.654Z,24.07
2019-06-01T01:36:34.741Z,24.23
2019-06-01T01:40:59.408Z,27.37
2019-06-01T01:45:23.635Z,27.13
2019-06-01T01:49:47.791Z,27.37
2019-06-01T01:54:11.737Z,28.67
2019-06-01T01:58:35.563Z,29.07
2019-06-01T02:03:00.127Z,28.30
2019-06-01T02:07:24.287Z,26.20
2019-06-01T02:11:48.592Z,26.87
2019-06-01T02:16:12.968Z,25.20
2019-06-01T02:20:38.694Z,26.80
2019-06-01T02:25:02.590Z,27.77
2019-06-01T02:29:27.003Z,25.93
2019-06-01T02:33:50.823Z,26.07
2019-06-01T02:38:14.994Z,27.03
2019-06-01T02:42:39.411Z,25.20
2019-06-01T02:47:04.023Z,24.50
2019-06-01T02:51:28.878Z,23.97
2019-06-01T02:55:52.896Z,25.95
2019-06-01T03:00:17.612Z,22.03
2019-06-01T03:04:42.064Z,19.07
2019-06-01T03:09:09.285Z,18.83
2019-06-01T03:13:35.928Z,17.23
2019-06-01T03:18:03.452Z,20.27
2019-06-01T03:22:28.590Z,20.03
2019-06-01T03:26:54.665Z,21.80
2019-06-01T03:31:18.922Z,19.65
2019-06-01T03:35:42.719Z,21.73
2019-06-01T03:40:15.581Z,17.90
2019-06-01T03:44:32.548Z,16.00
2019-06-01T03:48:56.645Z,18.10
2019-06-01T03:53:20.741Z,20.03
2019-06-01T03:57:44.801Z,22.77
2019-06-01T04:02:09.229Z,22.93
2019-06-01T04:06:33.063Z,22.23
2019-06-01T04:10:57.134Z,21.90
2019-06-01T04:15:21.239Z,22.45
2019-06-01T04:19:45.347Z,21.00
2019-06-01T04:24:10.255Z,23.90
2019-06-01T04:28:34.074Z,22.00
2019-06-01T04:32:57.889Z,22.53
2019-06-01T04:37:21.754Z,21.52
2019-06-01T04:41:45.558Z,27.80
2019-06-01T04:46:10.331Z,25.95
2019-06-01T04:50:34.359Z,29.23
2019-06-01T04:54:58.172Z,27.60
2019-06-01T04:59:22.373Z,30.32
2019-06-01T05:03:46.364Z,29.77
2019-06-01T05:08:12.616Z,28.40
2019-06-01T05:12:37.319Z,29.93
2019-06-01T05:17:01.136Z,31.53
2019-06-01T05:21:25.103Z,29.60
2019-06-01T05:25:48.931Z,26.73
2019-06-01T05:30:15.717Z,25.97
2019-06-01T05:34:39.682Z,27.00
2019-06-01T05:39:04.223Z,27.73
2019-06-01T05:43:28.106Z,27.50
2019-06-01T05:47:52.199Z,29.33
2019-06-01T05:52:16.695Z,27.42
2019-06-01T05:56:41.279Z,26.77
2019-06-01T06:01:05.823Z,25.83
2019-06-01T06:05:29.751Z,25.57
2019-06-01T06:09:54.304Z,24.13
2019-06-01T06:14:20.652Z,22.70
2019-06-01T06:18:44.447Z,21.43
2019-06-01T06:23:08.576Z,19.10
2019-06-01T06:27:32.482Z,19.90
2019-06-01T06:31:56.417Z,18.30
2019-06-01T06:36:20.416Z,17.97
2019-06-01T06:40:44.403Z,18.80
2019-06-01T06:45:08.702Z,17.37
2019-06-01T06:49:32.534Z,17.30
2019-06-01T06:53:56.348Z,17.50
2019-06-01T06:58:21.014Z,15.87
2019-06-01T07:02:45.404Z,18.53
2019-06-01T07:07:10.088Z,16.00
2019-06-01T07:11:34.013Z,16.10
2019-06-01T07:15:58.497Z,17.50
2019-06-01T07:20:23.704Z,15.88
2019-06-01T07:24:48.739Z,17.87
2019-06-01T07:29:12.737Z,18.70
2019-06-01T07:33:36.821Z,17.63
2019-06-01T07:38:00.653Z,17.90
2019-06-01T07:42:26.636Z,16.97
2019-06-01T07:46:50.769Z,18.43
2019-06-01T07:51:14.964Z,18.37
2019-06-01T07:55:38.764Z,17.37
2019-06-01T08:00:03.095Z,16.57
2019-06-01T08:04:31.739Z,16.67
2019-06-01T08:08:54.504Z,16.73
2019-06-01T08:13:18.628Z,17.62
2019-06-01T08:17:42.764Z,16.77
2019-06-01T08:22:07.063Z,15.10
2019-06-01T08:26:30.841Z,15.33
2019-06-01T08:30:54.971Z,17.10
2019-06-01T08:35:19.156Z,15.33
2019-06-01T08:39:43.056Z,14.17
2019-06-01T08:44:07.143Z,14.53
2019-06-01T08:48:31.997Z,14.07
2019-06-01T08:52:56.311Z,12.93
2019-06-01T08:57:21.400Z,14.93
2019-06-01T09:01:45.573Z,15.60
2019-06-01T09:06:09.912Z,9.97
2019-06-01T09:10:35.424Z,12.57
2019-06-01T09:14:59.940Z,11.80
2019-06-01T09:19:27.288Z,12.25
2019-06-01T09:23:51.190Z,10.97
2019-06-01T09:28:15.628Z,10.80
2019-06-01T09:32:39.536Z,11.23
2019-06-01T09:37:04.573Z,10.93
2019-06-01T09:41:28.449Z,9.17
2019-06-01T09:45:53.589Z,8.03
2019-06-01T09:50:17.908Z,9.37
2019-06-01T09:54:42.762Z,9.53
2019-06-01T09:59:11.829Z,8.33
2019-06-01T10:03:36.507Z,8.63
2019-06-01T10:08:00.560Z,8.83
2019-06-01T10:12:25.599Z,7.90
2019-06-01T10:16:49.718Z,6.83
2019-06-01T10:21:13.684Z,9.27
2019-06-01T10:25:38.544Z,8.33
2019-06-01T10:30:02.582Z,7.70
2019-06-01T10:34:26.702Z,8.37
2019-06-01T10:38:50.516Z,9.17
2019-06-01T10:43:14.359Z,8.87
2019-06-01T10:47:38.503Z,9.00
2019-06-01T10:52:02.807Z,8.50
2019-06-01T10:56:27.062Z,7.97
2019-06-01T11:00:51.400Z,7.97
2019-06-01T11:05:16.080Z,8.68
2019-06-01T11:09:41.201Z,7.27
2019-06-01T11:14:05.899Z,8.47
2019-06-01T11:18:29.717Z,9.40
2019-06-01T11:22:53.706Z,8.13
2019-06-01T11:27:18.063Z,8.10
2019-06-01T11:31:42.470Z,6.73
2019-06-01T11:36:06.656Z,10.37
2019-06-01T11:40:30.534Z,8.17
2019-06-01T11:44:54.522Z,9.77
2019-06-01T11:49:21.029Z,7.90
2019-06-01T11:53:45.636Z,8.33
2019-06-01T11:58:09.668Z,7.00
2019-06-01T12:02:33.428Z,8.27
2019-06-01T12:07:16.974Z,9.00
2019-06-01T12:11:27.631Z,9.53
2019-06-01T12:15:51.449Z,8.00
2019-06-01T12:24:50.741Z,9.20
2019-06-01T12:33:49.691Z,5.73
2019-06-01T12:38:13.594Z,7.62
2019-06-01T12:42:39.593Z,7.43
2019-06-01T12:47:03.679Z,6.93
2019-06-01T12:51:27.793Z,6.67
2019-06-01T12:55:51.563Z,8.70
2019-06-01T13:00:17.511Z,7.33
2019-06-01T13:04:42.821Z,8.13
2019-06-01T13:09:08.277Z,7.50
2019-06-01T13:13:32.337Z,5.90
2019-06-01T13:17:56.150Z,6.80
2019-06-01T13:22:20.235Z,6.67
2019-06-01T13:26:45.628Z,5.40
2019-06-01T13:31:09.604Z,6.40
2019-06-01T13:35:34.365Z,5.63
2019-06-01T13:39:58.514Z,7.20
2019-06-01T13:44:22.255Z,7.50
2019-06-01T13:48:47.457Z,6.07
2019-06-01T13:53:11.824Z,7.80
2019-06-01T13:57:39.293Z,6.10
2019-06-01T14:02:01.596Z,6.13
2019-06-01T14:06:25.656Z,5.97
2019-06-01T14:10:49.771Z,7.03
2019-06-01T14:15:14.094Z,5.80
2019-06-01T14:19:37.893Z,5.63
2019-06-01T14:24:01.952Z,5.53
2019-06-01T14:28:25.768Z,4.97
2019-06-01T14:32:50.323Z,7.43
2019-06-01T14:37:14.144Z,4.70
2019-06-01T14:41:38.288Z,4.57
2019-06-01T14:46:02.562Z,4.57
2019-06-01T14:50:26.357Z,5.20
2019-06-01T14:54:50.162Z,5.20
2019-06-01T14:59:13.970Z,5.73
2019-06-01T15:03:38.734Z,4.60
2019-06-01T15:08:02.603Z,5.23
2019-06-01T15:12:26.661Z,7.00
2019-06-01T15:16:51.700Z,5.90
2019-06-01T15:21:16.575Z,4.60
2019-06-01T15:25:40.359Z,4.10
2019-06-01T15:30:06.020Z,5.05
2019-06-01T15:34:29.832Z,6.27
2019-06-01T15:38:53.662Z,6.50
2019-06-01T15:43:17.451Z,6.72
2019-06-01T15:47:41.422Z,5.90
2019-06-01T15:52:06.074Z,4.67
2019-06-01T15:56:29.895Z,4.87
2019-06-01T16:00:54.982Z,5.63
2019-06-01T16:05:19.830Z,4.35
2019-06-01T16:09:43.643Z,4.50
2019-06-01T16:14:07.807Z,5.53
2019-06-01T16:18:31.681Z,4.30
2019-06-01T16:22:56.023Z,6.60
2019-06-01T16:27:19.965Z,5.80
2019-06-01T16:31:44.738Z,4.57
2019-06-01T16:36:08.847Z,4.67
2019-06-01T16:40:32.643Z,4.03
2019-06-01T16:44:57.437Z,3.30
2019-06-01T16:49:21.579Z,4.85
2019-06-01T16:53:45.377Z,4.40
2019-06-01T16:58:09.559Z,3.83
2019-06-01T17:02:33.329Z,3.27
2019-06-01T17:06:58.619Z,3.67
2019-06-01T17:11:23.027Z,3.47
2019-06-01T17:15:47.101Z,4.00
2019-06-01T17:20:49.705Z,6.43
2019-06-01T17:25:14.141Z,4.10
2019-06-01T17:29:38.027Z,2.90
2019-06-01T17:34:02.519Z,51.77
2019-06-01T17:38:26.453Z,23.17
2019-06-01T17:42:50.565Z,4.50
2019-06-01T17:47:14.767Z,5.67
2019-06-01T17:51:39.256Z,6.93
2019-06-01T17:56:03.945Z,6.23
2019-06-01T18:00:27.937Z,5.67
2019-06-01T18:04:51.750Z,4.10
2019-06-01T18:09:15.916Z,4.30
2019-06-01T18:13:40.082Z,3.60
2019-06-01T18:18:06.621Z,4.22
2019-06-01T18:22:30.612Z,5.13
2019-06-01T18:26:54.568Z,3.87
2019-06-01T18:31:18.721Z,3.30
2019-06-01T18:35:42.605Z,2.97
2019-06-01T18:40:07.799Z,3.13
2019-06-01T18:44:31.832Z,3.00
2019-06-01T18:48:55.632Z,3.20
2019-06-01T18:53:25.160Z,4.10
2019-06-01T18:57:52.156Z,3.60
2019-06-01T19:02:15.975Z,3.10
2019-06-01T19:06:39.782Z,3.40
2019-06-01T19:11:03.663Z,3.73
2019-06-01T19:15:29.113Z,3.20
2019-06-01T19:19:53.275Z,3.20
2019-06-01T19:24:17.119Z,6.07
2019-06-01T19:28:41.265Z,5.43
2019-06-01T19:33:09.997Z,5.62
2019-06-01T19:37:38.602Z,6.20
2019-06-01T19:42:01.710Z,7.77
2019-06-01T19:46:25.502Z,7.57
2019-06-01T19:50:49.464Z,7.80
2019-06-01T19:55:14.955Z,10.40
2019-06-01T19:59:38.979Z,10.53
2019-06-01T20:04:02.797Z,8.87
2019-06-01T20:08:26.600Z,7.27
2019-06-01T20:12:50.485Z,9.73
2019-06-01T20:17:15.693Z,10.40
2019-06-01T20:21:39.655Z,10.20
2019-06-01T20:26:03.560Z,7.80
2019-06-01T20:30:27.564Z,8.23
2019-06-01T20:34:51.454Z,8.63
2019-06-01T20:39:16.231Z,8.20
2019-06-01T20:43:40.536Z,8.37
2019-06-01T20:48:05.732Z,7.83
2019-06-01T20:52:29.638Z,8.03
2019-06-01T20:56:53.544Z,7.10
2019-06-01T21:01:17.710Z,7.35
2019-06-01T21:05:41.520Z,8.37
2019-06-01T21:10:06.397Z,8.40
2019-06-01T21:14:30.772Z,7.17
2019-06-01T21:18:54.580Z,6.43
2019-06-01T21:23:18.728Z,6.00
2019-06-01T21:27:43.769Z,6.20
2019-06-01T21:32:08.919Z,5.53
2019-06-01T21:36:34.106Z,5.57
2019-06-01T21:40:57.904Z,5.70
2019-06-01T21:45:22.051Z,5.13
2019-06-01T21:49:46.114Z,4.93
2019-06-01T21:54:10.240Z,5.47
2019-06-01T21:58:34.283Z,6.07
2019-06-01T22:02:58.488Z,5.70
2019-06-01T22:07:23.233Z,5.50
2019-06-01T22:11:47.257Z,5.87
2019-06-01T22:16:11.375Z,6.60
2019-06-01T22:20:35.359Z,6.60
2019-06-01T22:25:00.420Z,7.33
2019-06-01T22:29:24.433Z,7.07
2019-06-01T22:33:48.220Z,6.33
2019-06-01T22:38:12.554Z,6.00
2019-06-01T22:42:36.361Z,6.93
2019-06-01T22:47:00.708Z,6.00
2019-06-01T22:51:25.001Z,7.03
2019-06-01T22:55:48.777Z,7.10
2019-06-01T23:00:13.563Z,6.33
2019-06-01T23:04:37.512Z,6.97
2019-06-01T23:09:01.884Z,6.50
2019-06-01T23:13:26.751Z,6.37
2019-06-01T23:17:50.553Z,6.80
2019-06-01T23:22:14.742Z,6.17
2019-06-01T23:26:38.745Z,7.47
2019-06-01T23:31:03.850Z,7.10
2019-06-01T23:35:28.591Z,7.33
2019-06-01T23:39:52.621Z,6.43
2019-06-01T23:44:16.724Z,6.97
2019-06-01T23:48:40.526Z,7.70
2019-06-01T23:53:13.597Z,7.37
2019-06-01T23:57:32.132Z,8.97
